sensor_id;sensor_type;location;lat;lon;timestamp;P1;durP1;ratioP1;P2;durP2;ratioP2
62903;SDS011;49000;50.698;13.322;2023-04-16T00:01:58;10.87;;;9.70;;
62903;SDS011;49000;50.698;13.322;2023-04-16T00:04:24;10.50;;;8.90;;
62903;SDS011;49000;50.698;13.322;2023-04-16T00:06:49;9.97;;;8.67;;
62903;SDS011;49000;50.698;13.322;2023-04-16T00:09:15;10.17;;;9.07;;
62903;SDS011;49000;50.698;13.322;2023-04-16T00:11:40;9.53;;;8.40;;
62903;SDS011;49000;50.698;13.322;2023-04-16T00:14:06;8.70;;;7.80;;
62903;SDS011;49000;50.698;13.322;2023-04-16T00:16:31;9.93;;;8.40;;
62903;SDS011;49000;50.698;13.322;2023-04-16T00:18:57;9.77;;;8.67;;
62903;SDS011;49000;50.698;13.322;2023-04-16T00:21:22;9.00;;;7.77;;
62903;SDS011;49000;50.698;13.322;2023-04-16T00:23:48;9.30;;;7.97;;
62903;SDS011;49000;50.698;13.322;2023-04-16T00:26:13;10.13;;;9.13;;
62903;SDS011;49000;50.698;13.322;2023-04-16T00:28:40;10.47;;;7.97;;
62903;SDS011;49000;50.698;13.322;2023-04-16T00:31:05;8.50;;;7.30;;
62903;SDS011;49000;50.698;13.322;2023-04-16T00:33:31;9.10;;;8.07;;
62903;SDS011;49000;50.698;13.322;2023-04-16T00:35:56;9.43;;;8.20;;
62903;SDS011;49000;50.698;13.322;2023-04-16T00:38:22;9.23;;;7.70;;
62903;SDS011;49000;50.698;13.322;2023-04-16T00:40:47;9.17;;;8.20;;
62903;SDS011;49000;50.698;13.322;2023-04-16T00:43:22;8.20;;;7.13;;
62903;SDS011;49000;50.698;13.322;2023-04-16T00:45:49;10.60;;;7.53;;
62903;SDS011;49000;50.698;13.322;2023-04-16T00:48:16;9.03;;;7.50;;
62903;SDS011;49000;50.698;13.322;2023-04-16T00:50:41;8.73;;;7.47;;
62903;SDS011;49000;50.698;13.322;2023-04-16T00:53:07;9.40;;;6.90;;
62903;SDS011;49000;50.698;13.322;2023-04-16T00:55:33;7.57;;;6.77;;
62903;SDS011;49000;50.698;13.322;2023-04-16T00:57:59;12.03;;;8.13;;
62903;SDS011;49000;50.698;13.322;2023-04-16T01:00:24;9.50;;;8.50;;
62903;SDS011;49000;50.698;13.322;2023-04-16T01:02:51;9.37;;;8.03;;
62903;SDS011;49000;50.698;13.322;2023-04-16T01:05:17;9.10;;;7.80;;
62903;SDS011;49000;50.698;13.322;2023-04-16T01:07:43;8.57;;;7.63;;
62903;SDS011;49000;50.698;13.322;2023-04-16T01:10:08;10.30;;;8.97;;
62903;SDS011;49000;50.698;13.322;2023-04-16T01:12:34;9.73;;;7.50;;
62903;SDS011;49000;50.698;13.322;2023-04-16T01:14:59;8.20;;;7.40;;
62903;SDS011;49000;50.698;13.322;2023-04-16T01:17:25;8.50;;;7.40;;
62903;SDS011;49000;50.698;13.322;2023-04-16T01:19:50;8.27;;;7.47;;
62903;SDS011;49000;50.698;13.322;2023-04-16T01:22:16;8.07;;;7.17;;
62903;SDS011;49000;50.698;13.322;2023-04-16T01:24:41;7.90;;;6.80;;
62903;SDS011;49000;50.698;13.322;2023-04-16T01:27:07;9.63;;;7.87;;
62903;SDS011;49000;50.698;13.322;2023-04-16T01:29:32;9.07;;;7.60;;
62903;SDS011;49000;50.698;13.322;2023-04-16T01:31:58;8.63;;;7.37;;
62903;SDS011;49000;50.698;13.322;2023-04-16T01:34:24;9.83;;;8.20;;
62903;SDS011;49000;50.698;13.322;2023-04-16T01:36:49;9.00;;;7.70;;
62903;SDS011;49000;50.698;13.322;2023-04-16T01:39:15;9.03;;;7.13;;
62903;SDS011;49000;50.698;13.322;2023-04-16T01:41:43;8.50;;;7.60;;
62903;SDS011;49000;50.698;13.322;2023-04-16T01:44:09;8.77;;;7.53;;
62903;SDS011;49000;50.698;13.322;2023-04-16T01:46:34;9.43;;;7.30;;
62903;SDS011;49000;50.698;13.322;2023-04-16T01:49:01;8.60;;;7.50;;
62903;SDS011;49000;50.698;13.322;2023-04-16T01:51:28;9.07;;;7.40;;
62903;SDS011;49000;50.698;13.322;2023-04-16T01:53:53;9.10;;;7.43;;
62903;SDS011;49000;50.698;13.322;2023-04-16T01:56:19;7.90;;;7.10;;
62903;SDS011;49000;50.698;13.322;2023-04-16T01:58:44;8.63;;;7.17;;
62903;SDS011;49000;50.698;13.322;2023-04-16T02:01:11;10.50;;;7.23;;
62903;SDS011;49000;50.698;13.322;2023-04-16T02:03:37;7.93;;;6.80;;
62903;SDS011;49000;50.698;13.322;2023-04-16T02:06:02;9.00;;;7.10;;
62903;SDS011;49000;50.698;13.322;2023-04-16T02:08:28;8.30;;;6.97;;
62903;SDS011;49000;50.698;13.322;2023-04-16T02:10:54;8.30;;;7.00;;
62903;SDS011;49000;50.698;13.322;2023-04-16T02:13:20;8.73;;;7.17;;
62903;SDS011;49000;50.698;13.322;2023-04-16T02:15:47;8.03;;;6.70;;
62903;SDS011;49000;50.698;13.322;2023-04-16T02:18:13;9.63;;;7.17;;
62903;SDS011;49000;50.698;13.322;2023-04-16T02:20:40;8.93;;;7.23;;
62903;SDS011;49000;50.698;13.322;2023-04-16T02:23:09;9.87;;;7.33;;
62903;SDS011;49000;50.698;13.322;2023-04-16T02:25:38;8.07;;;7.03;;
62903;SDS011;49000;50.698;13.322;2023-04-16T02:28:05;8.93;;;7.67;;
62903;SDS011;49000;50.698;13.322;2023-04-16T02:30:33;8.93;;;7.57;;
62903;SDS011;49000;50.698;13.322;2023-04-16T02:32:59;10.90;;;8.37;;
62903;SDS011;49000;50.698;13.322;2023-04-16T02:35:27;10.23;;;8.07;;
62903;SDS011;49000;50.698;13.322;2023-04-16T02:37:53;11.67;;;8.67;;
62903;SDS011;49000;50.698;13.322;2023-04-16T02:40:18;13.30;;;8.90;;
62903;SDS011;49000;50.698;13.322;2023-04-16T02:42:43;14.17;;;9.13;;
62903;SDS011;49000;50.698;13.322;2023-04-16T02:45:09;13.37;;;9.97;;
62903;SDS011;49000;50.698;13.322;2023-04-16T02:47:35;14.57;;;9.47;;
62903;SDS011;49000;50.698;13.322;2023-04-16T02:50:01;14.03;;;8.83;;
62903;SDS011;49000;50.698;13.322;2023-04-16T02:52:26;12.30;;;8.90;;
62903;SDS011;49000;50.698;13.322;2023-04-16T02:54:51;14.00;;;9.13;;
62903;SDS011;49000;50.698;13.322;2023-04-16T02:57:17;15.50;;;8.77;;
62903;SDS011;49000;50.698;13.322;2023-04-16T02:59:42;11.57;;;8.87;;
62903;SDS011;49000;50.698;13.322;2023-04-16T03:02:08;11.63;;;8.80;;
62903;SDS011;49000;50.698;13.322;2023-04-16T03:04:33;13.10;;;9.13;;
62903;SDS011;49000;50.698;13.322;2023-04-16T03:06:59;14.90;;;9.63;;
62903;SDS011;49000;50.698;13.322;2023-04-16T03:09:24;16.53;;;8.97;;
62903;SDS011;49000;50.698;13.322;2023-04-16T03:11:50;12.40;;;9.40;;
62903;SDS011;49000;50.698;13.322;2023-04-16T03:14:16;12.70;;;9.27;;
62903;SDS011;49000;50.698;13.322;2023-04-16T03:16:41;11.67;;;8.73;;
62903;SDS011;49000;50.698;13.322;2023-04-16T03:19:07;10.07;;;8.23;;
62903;SDS011;49000;50.698;13.322;2023-04-16T03:21:32;10.70;;;8.20;;
62903;SDS011;49000;50.698;13.322;2023-04-16T03:23:58;9.60;;;7.67;;
62903;SDS011;49000;50.698;13.322;2023-04-16T03:26:23;9.97;;;7.53;;
62903;SDS011;49000;50.698;13.322;2023-04-16T03:28:49;9.20;;;7.73;;
62903;SDS011;49000;50.698;13.322;2023-04-16T03:31:14;9.90;;;7.93;;
62903;SDS011;49000;50.698;13.322;2023-04-16T03:33:40;10.17;;;8.03;;
62903;SDS011;49000;50.698;13.322;2023-04-16T03:36:06;10.90;;;7.97;;
62903;SDS011;49000;50.698;13.322;2023-04-16T03:38:32;10.53;;;7.80;;
62903;SDS011;49000;50.698;13.322;2023-04-16T03:40:57;19.20;;;8.73;;
62903;SDS011;49000;50.698;13.322;2023-04-16T03:43:23;13.03;;;8.40;;
62903;SDS011;49000;50.698;13.322;2023-04-16T03:45:48;12.30;;;7.90;;
62903;SDS011;49000;50.698;13.322;2023-04-16T03:48:14;12.27;;;7.73;;
62903;SDS011;49000;50.698;13.322;2023-04-16T03:50:43;15.50;;;8.27;;
62903;SDS011;49000;50.698;13.322;2023-04-16T03:53:09;13.13;;;8.37;;
62903;SDS011;49000;50.698;13.322;2023-04-16T03:55:34;9.33;;;7.87;;
62903;SDS011;49000;50.698;13.322;2023-04-16T03:58:00;10.17;;;8.50;;
62903;SDS011;49000;50.698;13.322;2023-04-16T04:00:27;18.67;;;9.50;;
62903;SDS011;49000;50.698;13.322;2023-04-16T04:02:53;10.73;;;7.97;;
62903;SDS011;49000;50.698;13.322;2023-04-16T04:05:19;10.20;;;7.63;;
62903;SDS011;49000;50.698;13.322;2023-04-16T04:07:44;10.30;;;7.03;;
62903;SDS011;49000;50.698;13.322;2023-04-16T04:10:10;8.77;;;7.03;;
62903;SDS011;49000;50.698;13.322;2023-04-16T04:12:35;8.90;;;7.50;;
62903;SDS011;49000;50.698;13.322;2023-04-16T04:15:01;10.03;;;7.63;;
62903;SDS011;49000;50.698;13.322;2023-04-16T04:17:26;10.50;;;7.83;;
62903;SDS011;49000;50.698;13.322;2023-04-16T04:19:52;12.03;;;8.60;;
62903;SDS011;49000;50.698;13.322;2023-04-16T04:22:17;10.90;;;8.50;;
62903;SDS011;49000;50.698;13.322;2023-04-16T04:24:43;10.43;;;7.67;;
62903;SDS011;49000;50.698;13.322;2023-04-16T04:27:09;8.30;;;6.93;;
62903;SDS011;49000;50.698;13.322;2023-04-16T04:29:34;9.23;;;6.97;;
62903;SDS011;49000;50.698;13.322;2023-04-16T04:31:59;9.20;;;6.57;;
62903;SDS011;49000;50.698;13.322;2023-04-16T04:34:25;7.73;;;6.20;;
62903;SDS011;49000;50.698;13.322;2023-04-16T04:36:51;9.00;;;7.00;;
62903;SDS011;49000;50.698;13.322;2023-04-16T04:39:16;8.63;;;6.70;;
62903;SDS011;49000;50.698;13.322;2023-04-16T04:41:42;9.20;;;6.53;;
62903;SDS011;49000;50.698;13.322;2023-04-16T04:44:07;8.23;;;6.00;;
62903;SDS011;49000;50.698;13.322;2023-04-16T04:46:33;7.77;;;6.37;;
62903;SDS011;49000;50.698;13.322;2023-04-16T04:48:58;7.33;;;6.20;;
62903;SDS011;49000;50.698;13.322;2023-04-16T04:51:24;7.13;;;5.77;;
62903;SDS011;49000;50.698;13.322;2023-04-16T04:53:50;8.40;;;6.40;;
62903;SDS011;49000;50.698;13.322;2023-04-16T04:56:16;8.30;;;6.40;;
62903;SDS011;49000;50.698;13.322;2023-04-16T04:58:41;7.17;;;5.73;;
62903;SDS011;49000;50.698;13.322;2023-04-16T05:01:07;8.77;;;6.13;;
62903;SDS011;49000;50.698;13.322;2023-04-16T05:03:32;6.23;;;5.57;;
62903;SDS011;49000;50.698;13.322;2023-04-16T05:05:58;6.63;;;5.83;;
62903;SDS011;49000;50.698;13.322;2023-04-16T05:08:23;8.07;;;6.53;;
62903;SDS011;49000;50.698;13.322;2023-04-16T05:10:49;8.03;;;5.90;;
62903;SDS011;49000;50.698;13.322;2023-04-16T05:13:14;7.30;;;6.07;;
62903;SDS011;49000;50.698;13.322;2023-04-16T05:15:40;8.07;;;5.80;;
62903;SDS011;49000;50.698;13.322;2023-04-16T05:18:05;8.30;;;6.50;;
62903;SDS011;49000;50.698;13.322;2023-04-16T05:20:31;9.63;;;7.03;;
62903;SDS011;49000;50.698;13.322;2023-04-16T05:22:56;9.00;;;6.83;;
62903;SDS011;49000;50.698;13.322;2023-04-16T05:25:22;7.73;;;6.33;;
62903;SDS011;49000;50.698;13.322;2023-04-16T05:27:47;8.37;;;6.70;;
62903;SDS011;49000;50.698;13.322;2023-04-16T05:30:13;8.17;;;6.57;;
62903;SDS011;49000;50.698;13.322;2023-04-16T05:32:38;9.30;;;7.10;;
62903;SDS011;49000;50.698;13.322;2023-04-16T05:35:05;8.77;;;6.83;;
62903;SDS011;49000;50.698;13.322;2023-04-16T05:37:30;9.60;;;6.30;;
62903;SDS011;49000;50.698;13.322;2023-04-16T05:39:56;10.57;;;6.80;;
62903;SDS011;49000;50.698;13.322;2023-04-16T05:42:21;7.80;;;6.37;;
62903;SDS011;49000;50.698;13.322;2023-04-16T05:44:47;7.90;;;6.17;;
62903;SDS011;49000;50.698;13.322;2023-04-16T05:47:12;9.03;;;7.33;;
62903;SDS011;49000;50.698;13.322;2023-04-16T05:49:38;9.03;;;7.03;;
62903;SDS011;49000;50.698;13.322;2023-04-16T05:52:03;7.27;;;6.03;;
62903;SDS011;49000;50.698;13.322;2023-04-16T05:54:29;6.90;;;5.77;;
62903;SDS011;49000;50.698;13.322;2023-04-16T05:56:55;8.13;;;5.97;;
62903;SDS011;49000;50.698;13.322;2023-04-16T05:59:20;6.20;;;5.33;;
62903;SDS011;49000;50.698;13.322;2023-04-16T06:01:46;6.67;;;5.23;;
62903;SDS011;49000;50.698;13.322;2023-04-16T06:04:11;7.17;;;5.70;;
62903;SDS011;49000;50.698;13.322;2023-04-16T06:06:37;7.77;;;5.53;;
62903;SDS011;49000;50.698;13.322;2023-04-16T06:09:03;6.53;;;5.33;;
62903;SDS011;49000;50.698;13.322;2023-04-16T06:11:29;7.33;;;5.80;;
62903;SDS011;49000;50.698;13.322;2023-04-16T06:13:54;6.97;;;5.67;;
62903;SDS011;49000;50.698;13.322;2023-04-16T06:16:20;8.87;;;5.60;;
62903;SDS011;49000;50.698;13.322;2023-04-16T06:18:45;5.77;;;5.10;;
62903;SDS011;49000;50.698;13.322;2023-04-16T06:21:11;6.20;;;4.93;;
62903;SDS011;49000;50.698;13.322;2023-04-16T06:23:36;6.40;;;5.40;;
62903;SDS011;49000;50.698;13.322;2023-04-16T06:26:03;7.13;;;5.90;;
62903;SDS011;49000;50.698;13.322;2023-04-16T06:28:28;7.80;;;6.47;;
62903;SDS011;49000;50.698;13.322;2023-04-16T06:30:54;6.93;;;5.57;;
62903;SDS011;49000;50.698;13.322;2023-04-16T06:33:19;7.33;;;6.20;;
62903;SDS011;49000;50.698;13.322;2023-04-16T06:35:45;7.57;;;6.13;;
62903;SDS011;49000;50.698;13.322;2023-04-16T06:38:10;7.93;;;6.87;;
62903;SDS011;49000;50.698;13.322;2023-04-16T06:40:36;7.93;;;7.03;;
62903;SDS011;49000;50.698;13.322;2023-04-16T06:43:01;7.73;;;6.67;;
62903;SDS011;49000;50.698;13.322;2023-04-16T06:45:27;8.70;;;7.17;;
62903;SDS011;49000;50.698;13.322;2023-04-16T06:47:52;7.73;;;6.47;;
62903;SDS011;49000;50.698;13.322;2023-04-16T06:50:18;9.17;;;7.27;;
62903;SDS011;49000;50.698;13.322;2023-04-16T06:52:43;10.80;;;7.90;;
62903;SDS011;49000;50.698;13.322;2023-04-16T06:55:09;8.40;;;7.60;;
62903;SDS011;49000;50.698;13.322;2023-04-16T06:57:35;8.00;;;6.90;;
62903;SDS011;49000;50.698;13.322;2023-04-16T07:00:01;8.17;;;7.20;;
62903;SDS011;49000;50.698;13.322;2023-04-16T07:02:28;7.30;;;6.60;;
62903;SDS011;49000;50.698;13.322;2023-04-16T07:04:54;7.40;;;6.70;;
62903;SDS011;49000;50.698;13.322;2023-04-16T07:07:20;7.73;;;6.97;;
62903;SDS011;49000;50.698;13.322;2023-04-16T07:09:45;8.20;;;7.40;;
62903;SDS011;49000;50.698;13.322;2023-04-16T07:12:11;9.40;;;8.33;;
62903;SDS011;49000;50.698;13.322;2023-04-16T07:14:37;12.03;;;10.83;;
62903;SDS011;49000;50.698;13.322;2023-04-16T07:17:02;10.93;;;9.77;;
62903;SDS011;49000;50.698;13.322;2023-04-16T07:19:28;13.03;;;11.07;;
62903;SDS011;49000;50.698;13.322;2023-04-16T07:21:56;13.27;;;11.17;;
62903;SDS011;49000;50.698;13.322;2023-04-16T07:24:24;12.13;;;10.47;;
62903;SDS011;49000;50.698;13.322;2023-04-16T07:26:50;11.40;;;9.90;;
62903;SDS011;49000;50.698;13.322;2023-04-16T07:29:15;8.57;;;7.50;;
62903;SDS011;49000;50.698;13.322;2023-04-16T07:31:41;8.20;;;7.40;;
62903;SDS011;49000;50.698;13.322;2023-04-16T07:34:06;6.57;;;5.90;;
62903;SDS011;49000;50.698;13.322;2023-04-16T07:36:32;7.87;;;6.37;;
62903;SDS011;49000;50.698;13.322;2023-04-16T07:38:57;9.00;;;5.57;;
62903;SDS011;49000;50.698;13.322;2023-04-16T07:41:23;6.90;;;6.10;;
62903;SDS011;49000;50.698;13.322;2023-04-16T07:43:48;3.70;;;3.40;;
62903;SDS011;49000;50.698;13.322;2023-04-16T07:46:14;2.83;;;2.47;;
62903;SDS011;49000;50.698;13.322;2023-04-16T07:48:40;3.30;;;3.00;;
62903;SDS011;49000;50.698;13.322;2023-04-16T07:51:05;4.50;;;3.37;;
62903;SDS011;49000;50.698;13.322;2023-04-16T07:53:31;3.83;;;3.53;;
62903;SDS011;49000;50.698;13.322;2023-04-16T07:55:56;3.23;;;2.40;;
62903;SDS011;49000;50.698;13.322;2023-04-16T07:58:22;1.90;;;1.70;;
62903;SDS011;49000;50.698;13.322;2023-04-16T08:00:47;0.93;;;0.90;;
62903;SDS011;49000;50.698;13.322;2023-04-16T08:03:12;1.20;;;1.10;;
62903;SDS011;49000;50.698;13.322;2023-04-16T08:05:40;2.50;;;1.33;;
62903;SDS011;49000;50.698;13.322;2023-04-16T08:08:05;1.93;;;1.33;;
62903;SDS011;49000;50.698;13.322;2023-04-16T08:10:31;1.87;;;1.50;;
62903;SDS011;49000;50.698;13.322;2023-04-16T08:12:58;1.43;;;1.33;;
62903;SDS011;49000;50.698;13.322;2023-04-16T08:15:25;1.10;;;1.00;;
62903;SDS011;49000;50.698;13.322;2023-04-16T08:17:50;2.03;;;1.20;;
62903;SDS011;49000;50.698;13.322;2023-04-16T08:20:16;1.40;;;1.30;;
62903;SDS011;49000;50.698;13.322;2023-04-16T08:22:41;1.73;;;1.13;;
62903;SDS011;49000;50.698;13.322;2023-04-16T08:25:07;2.00;;;1.53;;
62903;SDS011;49000;50.698;13.322;2023-04-16T08:27:33;2.27;;;1.93;;
62903;SDS011;49000;50.698;13.322;2023-04-16T08:29:59;1.83;;;1.63;;
62903;SDS011;49000;50.698;13.322;2023-04-16T08:32:25;1.60;;;1.47;;
62903;SDS011;49000;50.698;13.322;2023-04-16T08:34:51;1.87;;;1.40;;
62903;SDS011;49000;50.698;13.322;2023-04-16T08:37:16;2.20;;;1.67;;
62903;SDS011;49000;50.698;13.322;2023-04-16T08:39:42;2.23;;;1.87;;
62903;SDS011;49000;50.698;13.322;2023-04-16T08:42:20;1.70;;;1.60;;
62903;SDS011;49000;50.698;13.322;2023-04-16T08:44:52;2.93;;;2.13;;
62903;SDS011;49000;50.698;13.322;2023-04-16T08:47:28;2.00;;;1.83;;
62903;SDS011;49000;50.698;13.322;2023-04-16T08:49:58;2.70;;;2.00;;
62903;SDS011;49000;50.698;13.322;2023-04-16T08:52:24;2.63;;;2.10;;
62903;SDS011;49000;50.698;13.322;2023-04-16T08:57:22;3.87;;;1.73;;
62903;SDS011;49000;50.698;13.322;2023-04-16T08:59:50;1.53;;;1.40;;
62903;SDS011;49000;50.698;13.322;2023-04-16T09:02:18;1.30;;;1.20;;
62903;SDS011;49000;50.698;13.322;2023-04-16T09:04:43;1.60;;;1.37;;
62903;SDS011;49000;50.698;13.322;2023-04-16T09:07:10;1.63;;;1.40;;
62903;SDS011;49000;50.698;13.322;2023-04-16T09:09:36;1.40;;;1.30;;
62903;SDS011;49000;50.698;13.322;2023-04-16T09:12:02;1.40;;;1.30;;
62903;SDS011;49000;50.698;13.322;2023-04-16T09:14:29;1.97;;;1.33;;
62903;SDS011;49000;50.698;13.322;2023-04-16T09:16:55;1.47;;;1.27;;
62903;SDS011;49000;50.698;13.322;2023-04-16T09:19:21;1.00;;;0.90;;
62903;SDS011;49000;50.698;13.322;2023-04-16T09:21:47;1.37;;;1.10;;
62903;SDS011;49000;50.698;13.322;2023-04-16T09:24:13;1.53;;;1.20;;
62903;SDS011;49000;50.698;13.322;2023-04-16T09:26:40;1.50;;;1.00;;
62903;SDS011;49000;50.698;13.322;2023-04-16T09:29:07;0.80;;;0.80;;
62903;SDS011;49000;50.698;13.322;2023-04-16T09:31:33;1.00;;;0.90;;
62903;SDS011;49000;50.698;13.322;2023-04-16T09:34:05;1.20;;;1.10;;
62903;SDS011;49000;50.698;13.322;2023-04-16T09:36:32;1.20;;;1.10;;
62903;SDS011;49000;50.698;13.322;2023-04-16T09:38:59;1.60;;;1.20;;
62903;SDS011;49000;50.698;13.322;2023-04-16T09:41:26;1.33;;;1.20;;
62903;SDS011;49000;50.698;13.322;2023-04-16T09:43:56;1.43;;;1.20;;
62903;SDS011;49000;50.698;13.322;2023-04-16T09:46:23;1.23;;;1.10;;
62903;SDS011;49000;50.698;13.322;2023-04-16T09:48:53;1.33;;;1.20;;
62903;SDS011;49000;50.698;13.322;2023-04-16T09:51:19;1.20;;;1.10;;
62903;SDS011;49000;50.698;13.322;2023-04-16T09:53:44;1.63;;;1.23;;
62903;SDS011;49000;50.698;13.322;2023-04-16T09:56:10;1.60;;;1.50;;
62903;SDS011;49000;50.698;13.322;2023-04-16T09:58:36;1.53;;;1.40;;
62903;SDS011;49000;50.698;13.322;2023-04-16T10:01:04;2.00;;;1.80;;
62903;SDS011;49000;50.698;13.322;2023-04-16T10:03:37;1.73;;;1.60;;
62903;SDS011;49000;50.698;13.322;2023-04-16T10:06:13;1.80;;;1.50;;
62903;SDS011;49000;50.698;13.322;2023-04-16T10:08:48;1.30;;;1.20;;
62903;SDS011;49000;50.698;13.322;2023-04-16T10:11:14;1.40;;;1.30;;
62903;SDS011;49000;50.698;13.322;2023-04-16T10:13:40;1.50;;;1.40;;
62903;SDS011;49000;50.698;13.322;2023-04-16T10:16:06;2.20;;;1.50;;
62903;SDS011;49000;50.698;13.322;2023-04-16T10:18:36;1.30;;;1.20;;
62903;SDS011;49000;50.698;13.322;2023-04-16T10:21:06;1.40;;;1.30;;
62903;SDS011;49000;50.698;13.322;2023-04-16T10:23:32;1.97;;;1.43;;
62903;SDS011;49000;50.698;13.322;2023-04-16T10:25:58;1.53;;;1.37;;
62903;SDS011;49000;50.698;13.322;2023-04-16T10:28:25;1.50;;;1.40;;
62903;SDS011;49000;50.698;13.322;2023-04-16T10:30:53;1.83;;;1.20;;
62903;SDS011;49000;50.698;13.322;2023-04-16T10:33:21;2.40;;;1.50;;
62903;SDS011;49000;50.698;13.322;2023-04-16T10:35:48;2.57;;;1.70;;
62903;SDS011;49000;50.698;13.322;2023-04-16T10:38:24;1.60;;;1.50;;
62903;SDS011;49000;50.698;13.322;2023-04-16T10:41:03;1.97;;;1.73;;
62903;SDS011;49000;50.698;13.322;2023-04-16T10:43:33;2.07;;;1.87;;
62903;SDS011;49000;50.698;13.322;2023-04-16T10:48:57;2.40;;;2.20;;
62903;SDS011;49000;50.698;13.322;2023-04-16T10:51:32;2.60;;;2.40;;
62903;SDS011;49000;50.698;13.322;2023-04-16T10:54:02;1.83;;;1.73;;
62903;SDS011;49000;50.698;13.322;2023-04-16T10:56:44;2.33;;;2.13;;
62903;SDS011;49000;50.698;13.322;2023-04-16T10:59:10;3.20;;;1.93;;
62903;SDS011;49000;50.698;13.322;2023-04-16T11:01:37;2.67;;;2.37;;
62903;SDS011;49000;50.698;13.322;2023-04-16T11:14:57;3.57;;;3.27;;
62903;SDS011;49000;50.698;13.322;2023-04-16T11:17:46;2.30;;;2.10;;
62903;SDS011;49000;50.698;13.322;2023-04-16T11:22:48;2.20;;;2.00;;
62903;SDS011;49000;50.698;13.322;2023-04-16T11:25:18;2.20;;;2.00;;
62903;SDS011;49000;50.698;13.322;2023-04-16T11:27:45;2.10;;;1.90;;
62903;SDS011;49000;50.698;13.322;2023-04-16T11:30:11;1.83;;;1.73;;
62903;SDS011;49000;50.698;13.322;2023-04-16T11:32:37;1.63;;;1.53;;
62903;SDS011;49000;50.698;13.322;2023-04-16T11:35:04;2.33;;;1.90;;
62903;SDS011;49000;50.698;13.322;2023-04-16T11:37:43;2.23;;;2.03;;
62903;SDS011;49000;50.698;13.322;2023-04-16T11:40:10;2.00;;;1.80;;
62903;SDS011;49000;50.698;13.322;2023-04-16T11:42:37;2.47;;;2.20;;
62903;SDS011;49000;50.698;13.322;2023-04-16T11:45:05;2.33;;;2.00;;
62903;SDS011;49000;50.698;13.322;2023-04-16T11:47:31;2.53;;;2.33;;
62903;SDS011;49000;50.698;13.322;2023-04-16T11:50:19;2.47;;;2.00;;
62903;SDS011;49000;50.698;13.322;2023-04-16T11:52:46;2.20;;;1.90;;
62903;SDS011;49000;50.698;13.322;2023-04-16T11:55:13;2.13;;;1.93;;
62903;SDS011;49000;50.698;13.322;2023-04-16T11:57:39;2.53;;;2.33;;
62903;SDS011;49000;50.698;13.322;2023-04-16T12:00:05;2.47;;;2.27;;
62903;SDS011;49000;50.698;13.322;2023-04-16T12:02:35;2.03;;;1.93;;
62903;SDS011;49000;50.698;13.322;2023-04-16T12:05:01;2.60;;;2.40;;
62903;SDS011;49000;50.698;13.322;2023-04-16T12:07:27;2.27;;;2.07;;
62903;SDS011;49000;50.698;13.322;2023-04-16T12:10:03;2.10;;;1.90;;
62903;SDS011;49000;50.698;13.322;2023-04-16T12:12:31;2.83;;;2.10;;
62903;SDS011;49000;50.698;13.322;2023-04-16T12:14:57;2.30;;;2.20;;
62903;SDS011;49000;50.698;13.322;2023-04-16T12:17:30;2.30;;;2.10;;
62903;SDS011;49000;50.698;13.322;2023-04-16T12:19:57;2.20;;;2.00;;
62903;SDS011;49000;50.698;13.322;2023-04-16T12:22:28;2.40;;;2.20;;
62903;SDS011;49000;50.698;13.322;2023-04-16T12:27:53;2.53;;;2.33;;
62903;SDS011;49000;50.698;13.322;2023-04-16T12:30:23;2.43;;;2.23;;
62903;SDS011;49000;50.698;13.322;2023-04-16T12:32:50;2.50;;;2.30;;
62903;SDS011;49000;50.698;13.322;2023-04-16T12:35:36;2.40;;;2.20;;
62903;SDS011;49000;50.698;13.322;2023-04-16T12:38:02;2.30;;;2.10;;
62903;SDS011;49000;50.698;13.322;2023-04-16T12:40:27;2.50;;;2.30;;
62903;SDS011;49000;50.698;13.322;2023-04-16T12:42:53;2.43;;;2.23;;
62903;SDS011;49000;50.698;13.322;2023-04-16T12:45:19;2.90;;;2.70;;
62903;SDS011;49000;50.698;13.322;2023-04-16T12:47:45;2.50;;;2.30;;
62903;SDS011;49000;50.698;13.322;2023-04-16T12:50:10;2.60;;;2.40;;
62903;SDS011;49000;50.698;13.322;2023-04-16T12:52:36;3.23;;;2.97;;
62903;SDS011;49000;50.698;13.322;2023-04-16T12:55:01;2.80;;;2.60;;
62903;SDS011;49000;50.698;13.322;2023-04-16T12:57:27;3.63;;;2.77;;
62903;SDS011;49000;50.698;13.322;2023-04-16T12:59:53;3.53;;;3.23;;
62903;SDS011;49000;50.698;13.322;2023-04-16T13:02:20;4.63;;;4.23;;
62903;SDS011;49000;50.698;13.322;2023-04-16T13:04:46;4.83;;;4.43;;
62903;SDS011;49000;50.698;13.322;2023-04-16T13:07:11;5.60;;;5.10;;
62903;SDS011;49000;50.698;13.322;2023-04-16T13:09:37;4.57;;;4.17;;
62903;SDS011;49000;50.698;13.322;2023-04-16T13:12:02;5.13;;;4.47;;
62903;SDS011;49000;50.698;13.322;2023-04-16T13:14:28;5.77;;;5.27;;
62903;SDS011;49000;50.698;13.322;2023-04-16T13:16:53;5.30;;;4.90;;
62903;SDS011;49000;50.698;13.322;2023-04-16T13:19:19;4.90;;;4.50;;
62903;SDS011;49000;50.698;13.322;2023-04-16T13:21:45;5.67;;;5.03;;
62903;SDS011;49000;50.698;13.322;2023-04-16T13:24:10;6.00;;;5.27;;
62903;SDS011;49000;50.698;13.322;2023-04-16T13:26:36;5.50;;;5.00;;
62903;SDS011;49000;50.698;13.322;2023-04-16T13:29:01;5.57;;;4.67;;
62903;SDS011;49000;50.698;13.322;2023-04-16T13:31:27;5.73;;;4.83;;
62903;SDS011;49000;50.698;13.322;2023-04-16T13:33:52;5.63;;;5.13;;
62903;SDS011;49000;50.698;13.322;2023-04-16T13:36:18;6.20;;;5.40;;
62903;SDS011;49000;50.698;13.322;2023-04-16T13:38:44;7.00;;;6.30;;
62903;SDS011;49000;50.698;13.322;2023-04-16T13:41:09;7.43;;;6.70;;
62903;SDS011;49000;50.698;13.322;2023-04-16T13:43:35;7.80;;;6.90;;
62903;SDS011;49000;50.698;13.322;2023-04-16T13:46:01;7.10;;;6.40;;
62903;SDS011;49000;50.698;13.322;2023-04-16T13:48:27;6.90;;;6.00;;
62903;SDS011;49000;50.698;13.322;2023-04-16T13:50:53;7.47;;;6.47;;
62903;SDS011;49000;50.698;13.322;2023-04-16T13:53:18;7.17;;;6.47;;
62903;SDS011;49000;50.698;13.322;2023-04-16T13:55:44;7.67;;;6.77;;
62903;SDS011;49000;50.698;13.322;2023-04-16T13:58:09;7.43;;;6.20;;
62903;SDS011;49000;50.698;13.322;2023-04-16T14:00:35;6.07;;;5.47;;
62903;SDS011;49000;50.698;13.322;2023-04-16T14:03:01;6.20;;;5.17;;
62903;SDS011;49000;50.698;13.322;2023-04-16T14:05:27;6.40;;;5.80;;
62903;SDS011;49000;50.698;13.322;2023-04-16T14:07:52;6.03;;;5.53;;
62903;SDS011;49000;50.698;13.322;2023-04-16T14:10:18;7.60;;;6.80;;
62903;SDS011;49000;50.698;13.322;2023-04-16T14:12:43;7.40;;;6.70;;
62903;SDS011;49000;50.698;13.322;2023-04-16T14:15:09;7.10;;;6.40;;
62903;SDS011;49000;50.698;13.322;2023-04-16T14:17:38;7.00;;;6.30;;
62903;SDS011;49000;50.698;13.322;2023-04-16T14:20:04;8.93;;;6.90;;
62903;SDS011;49000;50.698;13.322;2023-04-16T14:22:30;6.67;;;5.97;;
62903;SDS011;49000;50.698;13.322;2023-04-16T14:24:56;7.03;;;5.70;;
62903;SDS011;49000;50.698;13.322;2023-04-16T14:27:21;7.27;;;6.43;;
62903;SDS011;49000;50.698;13.322;2023-04-16T14:29:47;7.23;;;6.03;;
62903;SDS011;49000;50.698;13.322;2023-04-16T14:32:13;6.00;;;5.40;;
62903;SDS011;49000;50.698;13.322;2023-04-16T14:34:38;8.43;;;6.90;;
62903;SDS011;49000;50.698;13.322;2023-04-16T14:37:04;7.73;;;6.93;;
62903;SDS011;49000;50.698;13.322;2023-04-16T14:39:30;7.93;;;7.13;;
62903;SDS011;49000;50.698;13.322;2023-04-16T14:41:56;9.50;;;7.03;;
62903;SDS011;49000;50.698;13.322;2023-04-16T14:44:21;6.77;;;6.07;;
62903;SDS011;49000;50.698;13.322;2023-04-16T14:46:47;7.10;;;6.30;;
62903;SDS011;49000;50.698;13.322;2023-04-16T14:49:12;6.83;;;6.13;;
62903;SDS011;49000;50.698;13.322;2023-04-16T14:51:38;7.40;;;5.90;;